LFPO/ORY METAR and TAF weather

Enter ICAO airport designator
Station Type Date Time Source
LFPO METAR 2019/10/23 07:30 UTC NOAA

LFPO 230730Z 06005KT 9999 BKN010 BKN110 11/10 Q1014 NOSIG


Station Type Date Time Source
LFPO Decoded METAR 2019/10/23 07:30 UTC NOAA

Paris-Orly, France (LFPO) 48-44N 002-24E 96M
Oct 23, 2019 - 03:30 AM EDT / 2019.10.23 0730 UTC
Wind: from the ENE (060 degrees) at 6 MPH (5 KT):0
Visibility: greater than 7 mile(s):0
Sky conditions: mostly cloudy
Temperature: 51 F (11 C)
Dew Point: 50 F (10 C)
Relative Humidity: 93%
Pressure (altimeter): 29.94 in. Hg (1014 hPa)
ob: LFPO 230730Z 06005KT 9999 BKN010 BKN110 11/10 Q1014 NOSIG
cycle: 7

Station Type Date Time Source
LFPO TAF 2019/10/23 06:48 UTC NOAA

TAF LFPO 230500Z 2306/2412 04010KT 9999 SCT016 BKN100
TEMPO 2306/2311 BKN008 BKN015
BECMG 2312/2314 12006KT CAVOK
TEMPO 2400/2406 4000 BR
BECMG 2409/2412 20010KT BKN030

Example: see airport list